Time;durP1;ratioP1;P1;durP2;ratioP2;P2;SDS_P1;SDS_P2;PMS_P1;PMS_P2;Temp;Humidity;BMP_temperature;BMP_pressure;BME280_temperature;BME280_humidity;BME280_pressure;Samples;Min_cycle;Max_cycle;Signal;HPM_P1;HPM_P2
2022/06/11 00:01:05;;;;;;;;;;;;;;;21.29;30.88;97411.34;4860989;29;1130;-76
2022/06/11 00:03:30;;;;;;;;;;;;;;;21.28;30.90;97415.44;4835286;29;1031;-75
2022/06/11 00:05:56;;;;;;;;;;;;;;;21.55;30.58;97419.78;4824910;29;1977;-75
2022/06/11 00:08:21;;;;;;;;;;;;;;;21.48;30.80;97412.34;4837900;29;1041;-76
2022/06/11 00:10:47;;;;;;;;;;;;;;;21.32;31.13;97413.31;4842670;29;1033;-75
2022/06/11 00:13:12;;;;;;;;;;;;;;;21.32;31.15;97410.47;4842886;29;969;-76
2022/06/11 00:15:38;;;;;;;;;;;;;;;21.29;30.83;97414.19;4842523;29;1009;-76
2022/06/11 00:18:04;;;;;;;;;;;;;;;21.36;31.01;97409.56;4842462;29;1076;-76
2022/06/11 00:20:29;;;;;;;;;;;;;;;21.94;30.71;97417.59;4843008;29;997;-76
2022/06/11 00:22:55;;;;;;;;;;;;;;;22.00;30.92;97412.91;4842308;29;1076;-76
2022/06/11 00:25:20;;;;;;;;;;;;;;;21.93;30.37;97410.34;4855300;29;1089;-76
2022/06/11 00:27:47;;;;;;;;;;;;;;;21.74;30.54;97407.38;4917202;29;1910;-76
2022/06/11 00:30:13;;;;;;;;;;;;;;;21.75;30.59;97413.81;4947061;29;1022;-76
2022/06/11 00:32:38;;;;;;;;;;;;;;;21.55;30.45;97411.28;4932547;29;1022;-76
2022/06/11 00:35:05;;;;;;;;;;;;;;;21.51;30.51;97421.97;4950229;29;1118;-76
2022/06/11 00:37:30;;;;;;;;;;;;;;;21.46;30.62;97414.06;4955209;29;1050;-76
2022/06/11 00:39:55;;;;;;;;;;;;;;;21.66;30.37;97416.56;4955270;29;982;-76
2022/06/11 00:42:23;;;;;;;;;;;;;;;21.58;30.50;97411.19;4935995;29;1025;-76
2022/06/11 00:44:48;;;;;;;;;;;;;;;21.38;30.86;97412.72;4935844;29;980;-76
2022/06/11 00:47:15;;;;;;;;;;;;;;;21.35;31.25;97413.63;4935637;29;1914;-76
2022/06/11 00:49:53;;;;;;;;;;;;;;;21.46;30.81;97411.25;4935984;29;1055;-76
2022/06/11 00:52:18;;;;;;;;;;;;;;;21.35;30.85;97407.97;4919898;29;924;-76
2022/06/11 00:54:46;;;;;;;;;;;;;;;21.27;30.86;97405.38;4936128;29;1069;-76
2022/06/11 00:57:12;;;;;;;;;;;;;;;21.35;30.90;97411.63;4937083;29;1053;-76
2022/06/11 00:59:39;;;;;;;;;;;;;;;21.36;30.67;97409.56;4954799;29;1020;-76
2022/06/11 01:02:05;;;;;;;;;;;;;;;21.20;30.98;97413.31;4955041;28;1023;-76
2022/06/11 01:04:35;;;;;;;;;;;;;;;21.84;31.18;97406.19;4939255;29;1308;-76
2022/06/11 01:07:05;;;;;;;;;;;;;;;22.02;30.81;97393.38;4923909;29;1907;-75
2022/06/11 01:09:33;;;;;;;;;;;;;;;22.19;30.43;97403.31;4935423;28;1273;-76
2022/06/11 01:12:05;;;;;;;;;;;;;;;21.92;30.68;97405.94;4939249;29;1014;-76
2022/06/11 01:14:42;;;;;;;;;;;;;;;21.67;30.92;97406.84;4901022;29;1034;-76
2022/06/11 01:17:26;;;;;;;;;;;;;;;21.66;30.89;97410.91;4901568;29;1309;-76
2022/06/11 01:20:14;;;;;;;;;;;;;;;21.59;30.97;97406.31;4901425;29;915;-76
2022/06/11 01:22:39;;;;;;;;;;;;;;;21.46;30.81;97402.75;4901090;29;1006;-75
2022/06/11 01:25:17;;;;;;;;;;;;;;;21.51;30.59;97405.00;4901521;29;991;-76
2022/06/11 01:27:48;;;;;;;;;;;;;;;21.22;31.00;97410.81;4901034;29;1919;-76
2022/06/11 01:30:26;;;;;;;;;;;;;;;21.36;30.67;97398.25;4901308;29;975;-76
2022/06/11 01:32:58;;;;;;;;;;;;;;;21.35;30.57;97394.63;4900967;29;1047;-76
2022/06/11 01:35:28;;;;;;;;;;;;;;;21.32;30.80;97402.00;4917981;29;994;-76
2022/06/11 01:37:54;;;;;;;;;;;;;;;21.38;30.59;97390.88;4939001;29;985;-76
2022/06/11 01:40:20;;;;;;;;;;;;;;;21.59;31.28;97401.44;4947360;29;1026;-76
2022/06/11 01:42:55;;;;;;;;;;;;;;;21.91;30.68;97398.66;4973737;28;1311;-76
2022/06/11 01:45:23;;;;;;;;;;;;;;;22.05;30.36;97406.63;5006328;28;971;-76
2022/06/11 01:47:49;;;;;;;;;;;;;;;21.83;30.57;97407.44;5058246;28;1906;-76
2022/06/11 01:50:16;;;;;;;;;;;;;;;21.54;30.76;97409.72;5016626;28;984;-76
2022/06/11 01:53:01;;;;;;;;;;;;;;;21.74;30.04;97415.88;4967474;28;1024;-75
2022/06/11 01:55:35;;;;;;;;;;;;;;;21.35;30.94;97410.81;5015988;28;875;-75
2022/06/11 01:58:33;;;;;;;;;;;;;;;21.46;30.43;97402.75;5014765;28;2080;-76
2022/06/11 02:01:07;;;;;;;;;;;;;;;21.38;30.54;97396.53;4996814;28;972;-76
2022/06/11 02:03:52;;;;;;;;;;;;;;;21.39;30.68;97388.84;4996610;28;1178;-76
2022/06/11 02:06:28;;;;;;;;;;;;;;;21.28;30.87;97384.31;4996301;28;1969;-76
2022/06/11 02:08:57;;;;;;;;;;;;;;;21.50;30.45;97392.06;4976619;28;1202;-76
2022/06/11 02:11:31;;;;;;;;;;;;;;;21.42;30.44;97404.91;4976766;28;974;-76
2022/06/11 02:14:01;;;;;;;;;;;;;;;21.42;30.47;97402.09;4976644;28;996;-76
2022/06/11 02:16:28;;;;;;;;;;;;;;;21.16;30.92;97399.28;4976452;28;957;-76
2022/06/11 02:18:54;;;;;;;;;;;;;;;21.87;31.14;97392.38;4976400;28;934;-76
2022/06/11 02:21:20;;;;;;;;;;;;;;;21.95;30.76;97400.13;4976424;28;968;-76
2022/06/11 02:23:55;;;;;;;;;;;;;;;22.01;30.74;97389.78;4995897;28;986;-75
2022/06/11 02:26:22;;;;;;;;;;;;;;;21.76;30.73;97399.22;4979565;28;1975;-76
2022/06/11 02:28:48;;;;;;;;;;;;;;;21.55;31.33;97394.31;4937713;29;1319;-76
2022/06/11 02:31:15;;;;;;;;;;;;;;;21.44;31.34;97388.25;4937701;29;991;-76
2022/06/11 02:33:40;;;;;;;;;;;;;;;21.43;31.15;97395.16;4937748;29;985;-75
2022/06/11 02:36:12;;;;;;;;;;;;;;;21.46;31.14;97391.44;4937662;29;1044;-76
2022/06/11 02:38:37;;;;;;;;;;;;;;;21.37;31.38;97394.16;4937654;29;1068;-76
2022/06/11 02:41:06;;;;;;;;;;;;;;;21.55;31.24;97388.66;4956465;29;1023;-76
2022/06/11 02:43:32;;;;;;;;;;;;;;;21.36;31.46;97392.59;4956707;28;1278;-76
2022/06/11 02:45:57;;;;;;;;;;;;;;;21.33;31.55;97386.59;4956804;28;1890;-76
2022/06/11 02:48:23;;;;;;;;;;;;;;;21.39;31.53;97380.34;4956675;28;1038;-76
2022/06/11 02:50:48;;;;;;;;;;;;;;;21.30;31.57;97392.38;4973518;28;1092;-76
2022/06/11 02:53:14;;;;;;;;;;;;;;;21.37;31.58;97405.50;4975803;28;983;-76
2022/06/11 02:55:40;;;;;;;;;;;;;;;21.45;31.32;97401.16;4992831;28;984;-76
2022/06/11 02:58:05;;;;;;;;;;;;;;;21.41;31.86;97403.34;4995176;28;1405;-76
2022/06/11 03:00:32;;;;;;;;;;;;;;;21.35;31.52;97410.81;4995454;28;1009;-76
2022/06/11 03:02:57;;;;;;;;;;;;;;;21.31;31.82;97403.25;4995535;28;983;-76
2022/06/11 03:05:24;;;;;;;;;;;;;;;21.67;32.00;97424.63;4995407;28;974;-76
2022/06/11 03:07:49;;;;;;;;;;;;;;;21.82;32.17;97413.56;4995637;28;1977;-76
2022/06/11 03:10:15;;;;;;;;;;;;;;;22.19;31.95;97414.63;5001134;28;908;-76
2022/06/11 03:12:40;;;;;;;;;;;;;;;22.17;31.66;97405.00;5036923;28;1157;-76
2022/06/11 03:15:06;;;;;;;;;;;;;;;21.68;32.67;97408.44;5036976;28;1035;-76
2022/06/11 03:17:31;;;;;;;;;;;;;;;21.67;32.52;97406.84;5036745;28;888;-76
2022/06/11 03:19:57;;;;;;;;;;;;;;;21.52;32.51;97410.19;5036710;28;986;-77
2022/06/11 03:22:22;;;;;;;;;;;;;;;21.54;32.21;97424.66;5036737;28;971;-76
2022/06/11 03:24:48;;;;;;;;;;;;;;;21.30;32.64;97420.69;5036979;28;984;-76
2022/06/11 03:27:15;;;;;;;;;;;;;;;21.39;32.48;97420.75;5013846;28;1979;-76
2022/06/11 03:29:41;;;;;;;;;;;;;;;21.32;32.73;97427.47;5014586;28;966;-77
2022/06/11 03:32:07;;;;;;;;;;;;;;;21.43;32.55;97423.47;5014328;28;979;-76
2022/06/11 03:34:32;;;;;;;;;;;;;;;21.45;32.53;97429.44;4981646;28;1100;-76
2022/06/11 03:36:58;;;;;;;;;;;;;;;21.50;32.13;97437.34;5014312;28;1105;-77
2022/06/11 03:39:23;;;;;;;;;;;;;;;21.33;32.59;97437.53;5014169;28;989;-77
2022/06/11 03:41:49;;;;;;;;;;;;;;;21.52;31.90;97434.88;5013916;28;1085;-76
2022/06/11 03:44:14;;;;;;;;;;;;;;;21.49;32.21;97441.44;5011376;28;1853;-77
2022/06/11 03:46:40;;;;;;;;;;;;;;;21.79;33.07;97440.75;5012068;28;1967;-77
2022/06/11 03:49:05;;;;;;;;;;;;;;;22.01;33.05;97442.81;4993911;28;958;-76
2022/06/11 03:51:31;;;;;;;;;;;;;;;22.19;32.81;97442.97;4994546;28;1010;-76
2022/06/11 03:53:56;;;;;;;;;;;;;;;22.04;32.81;97439.84;4961874;28;984;-76
2022/06/11 03:56:22;;;;;;;;;;;;;;;21.63;33.48;97440.16;4994383;28;958;-76
2022/06/11 03:58:47;;;;;;;;;;;;;;;21.65;33.14;97444.09;4980021;28;1323;-77
2022/06/11 04:01:16;;;;;;;;;;;;;;;21.55;33.30;97433.94;4976291;28;1911;-76
2022/06/11 04:04:11;;;;;;;;;;;;;;;21.72;32.74;97443.84;4974740;28;1000;-77
2022/06/11 04:06:37;;;;;;;;;;;;;;;21.61;32.70;97443.47;4935969;29;1914;-76
2022/06/11 04:09:03;;;;;;;;;;;;;;;21.53;33.15;97447.78;4935466;29;1448;-77
2022/06/11 04:11:29;;;;;;;;;;;;;;;21.52;33.18;97451.88;4917993;29;1057;-76
2022/06/11 04:13:55;;;;;;;;;;;;;;;21.45;32.84;97454.91;4917309;29;974;-76
2022/06/11 04:16:20;;;;;;;;;;;;;;;21.44;32.92;97456.97;4953685;29;1173;-76
2022/06/11 04:18:48;;;;;;;;;;;;;;;21.41;32.80;97468.44;4955517;29;1029;-76
2022/06/11 04:21:13;;;;;;;;;;;;;;;21.55;32.33;97476.41;4939658;29;971;-76
2022/06/11 04:23:39;;;;;;;;;;;;;;;21.51;32.47;97479.38;4955378;29;1173;-76
2022/06/11 04:26:06;;;;;;;;;;;;;;;21.56;32.02;97487.28;4972143;28;1967;-77
2022/06/11 04:28:31;;;;;;;;;;;;;;;21.48;32.01;97485.94;4974639;28;944;-77
2022/06/11 04:30:58;;;;;;;;;;;;;;;21.46;31.99;97485.63;4975320;28;1927;-76
2022/06/11 04:33:23;;;;;;;;;;;;;;;21.63;31.67;97497.56;4974426;28;922;-76
2022/06/11 04:35:49;;;;;;;;;;;;;;;21.64;31.57;97499.16;4974222;28;938;-77
2022/06/11 04:38:14;;;;;;;;;;;;;;;21.47;31.56;97500.56;4976156;28;960;-76
2022/06/11 04:40:40;;;;;;;;;;;;;;;21.53;31.66;97498.72;4920879;29;991;-76
2022/06/11 04:43:05;;;;;;;;;;;;;;;21.48;31.36;97494.44;4941531;29;971;-76
2022/06/11 04:45:31;;;;;;;;;;;;;;;21.35;31.76;97495.69;4960890;28;1665;-77
2022/06/11 04:47:56;;;;;;;;;;;;;;;21.41;31.18;97503.19;4933856;29;1915;-76
2022/06/11 04:50:22;;;;;;;;;;;;;;;21.34;31.50;97506.22;4977954;28;1820;-76
2022/06/11 04:52:48;;;;;;;;;;;;;;;21.23;31.58;97509.38;4972102;28;2044;-76
2022/06/11 04:55:14;;;;;;;;;;;;;;;21.25;31.36;97512.56;4958509;28;1008;-76
2022/06/11 04:57:40;;;;;;;;;;;;;;;21.39;31.31;97519.03;4944880;29;1384;-76
2022/06/11 05:00:06;;;;;;;;;;;;;;;21.44;30.91;97529.75;4942339;28;1106;-76
2022/06/11 05:02:31;;;;;;;;;;;;;;;21.44;31.18;97535.44;4977783;28;936;-76
2022/06/11 05:04:56;;;;;;;;;;;;;;;21.40;30.85;97541.22;4978244;28;1924;-76
2022/06/11 05:07:22;;;;;;;;;;;;;;;21.45;31.04;97535.00;4978130;28;1919;-77
2022/06/11 05:09:47;;;;;;;;;;;;;;;21.94;31.23;97550.72;4977611;28;1226;-76
2022/06/11 05:12:13;;;;;;;;;;;;;;;21.85;32.28;97555.03;4991586;28;2448;-76
2022/06/11 05:14:38;;;;;;;;;;;;;;;22.02;32.22;97564.19;4995934;28;2223;-76
2022/06/11 05:17:04;;;;;;;;;;;;;;;21.84;32.19;97570.44;5002935;28;1852;-76
2022/06/11 05:19:29;;;;;;;;;;;;;;;21.63;31.85;97568.34;4996592;28;1271;-76
2022/06/11 05:21:55;;;;;;;;;;;;;;;21.52;32.13;97559.44;4995559;28;1000;-76
2022/06/11 05:24:20;;;;;;;;;;;;;;;21.38;31.99;97566.34;4997386;28;1038;-77
2022/06/11 05:26:49;;;;;;;;;;;;;;;21.56;31.21;97554.44;4997150;28;1979;-77
2022/06/11 05:29:16;;;;;;;;;;;;;;;21.55;31.46;97555.66;5007758;28;2146;-77
2022/06/11 05:31:42;;;;;;;;;;;;;;;21.42;31.53;97557.75;5016777;28;1841;-76
2022/06/11 05:34:07;;;;;;;;;;;;;;;21.44;31.36;97556.03;4998736;28;1860;-76
2022/06/11 05:36:33;;;;;;;;;;;;;;;21.36;31.60;97556.72;5017036;28;1095;-76
2022/06/11 05:38:58;;;;;;;;;;;;;;;21.38;31.52;97560.69;5000088;28;1053;-77
2022/06/11 05:41:24;;;;;;;;;;;;;;;21.51;31.08;97569.19;5016452;28;1019;-76
2022/06/11 05:43:49;;;;;;;;;;;;;;;21.38;31.25;97568.38;5016304;28;1195;-76
2022/06/11 05:46:18;;;;;;;;;;;;;;;21.36;31.12;97568.84;4996651;28;1915;-77
2022/06/11 05:48:45;;;;;;;;;;;;;;;21.28;31.68;97573.09;4996173;28;952;-76
2022/06/11 05:51:11;;;;;;;;;;;;;;;21.17;31.54;97576.28;4980143;28;1218;-76
2022/06/11 05:53:37;;;;;;;;;;;;;;;21.29;31.48;97580.34;4996493;28;911;-76
2022/06/11 05:56:03;;;;;;;;;;;;;;;21.41;30.98;97581.63;4996604;28;1066;-76
2022/06/11 05:58:32;;;;;;;;;;;;;;;21.27;31.15;97577.97;4996090;28;1227;-76
2022/06/11 06:00:58;;;;;;;;;;;;;;;21.35;31.07;97583.44;4996491;28;982;-77
2022/06/11 06:03:23;;;;;;;;;;;;;;;21.39;30.88;97584.09;4996668;28;984;-77
2022/06/11 06:05:49;;;;;;;;;;;;;;;21.21;31.36;97576.19;4996173;28;1125;-76
2022/06/11 06:08:14;;;;;;;;;;;;;;;21.21;31.36;97571.31;4963845;28;1983;-77
2022/06/11 06:10:40;;;;;;;;;;;;;;;21.28;30.99;97579.56;4992571;28;2124;-77
2022/06/11 06:13:45;;;;;;;;;;;;;;;21.20;31.10;97583.09;4976778;28;1032;-77
2022/06/11 06:15:51;;;;;;;;;;;;;;;21.36;31.04;97579.38;4976934;28;985;-76
2022/06/11 06:18:17;;;;;;;;;;;;;;;21.64;30.73;97578.44;4976699;28;965;-76
2022/06/11 06:20:42;;;;;;;;;;;;;;;21.76;31.48;97583.28;4975872;28;2048;-77
2022/06/11 06:23:07;;;;;;;;;;;;;;;22.05;31.52;97580.25;4976229;28;2165;-76
2022/06/11 06:25:33;;;;;;;;;;;;;;;22.20;31.60;97591.91;4976791;28;957;-76
2022/06/11 06:27:58;;;;;;;;;;;;;;;21.80;31.67;97595.25;4970656;28;1981;-77
2022/06/11 06:30:24;;;;;;;;;;;;;;;21.73;31.26;97587.03;4975775;28;2088;-77
2022/06/11 06:32:49;;;;;;;;;;;;;;;21.53;31.56;97592.16;4976534;28;973;-76
2022/06/11 06:35:15;;;;;;;;;;;;;;;21.37;31.58;97586.63;4976681;28;1027;-77
2022/06/11 06:37:40;;;;;;;;;;;;;;;21.56;31.33;97589.22;4976448;28;954;-77
2022/06/11 06:40:06;;;;;;;;;;;;;;;21.35;31.38;97583.44;4995391;28;2056;-77
2022/06/11 06:42:31;;;;;;;;;;;;;;;21.35;31.36;97591.91;4995828;28;1035;-76
2022/06/11 06:44:59;;;;;;;;;;;;;;;21.29;31.38;97595.28;4979412;28;1408;-77
2022/06/11 06:47:24;;;;;;;;;;;;;;;21.42;31.53;97595.31;4995889;28;1902;-76
2022/06/11 06:49:49;;;;;;;;;;;;;;;21.31;31.36;97590.00;4994201;28;2096;-76
2022/06/11 06:52:15;;;;;;;;;;;;;;;21.41;31.08;97590.13;4995641;28;978;-76
2022/06/11 06:54:40;;;;;;;;;;;;;;;21.26;31.70;97593.38;4994590;28;2082;-77
2022/06/11 06:57:06;;;;;;;;;;;;;;;21.29;31.22;97591.66;4995533;28;1788;-77
2022/06/11 06:59:32;;;;;;;;;;;;;;;21.44;31.25;97586.38;4982350;28;965;-76
2022/06/11 07:01:58;;;;;;;;;;;;;;;21.32;31.19;97591.59;5045409;28;1653;-77
2022/06/11 07:04:23;;;;;;;;;;;;;;;21.50;31.08;97590.22;5056989;28;1290;-78
2022/06/11 07:06:48;;;;;;;;;;;;;;;21.39;30.80;97584.91;5057051;28;1910;-78
2022/06/11 07:09:14;;;;;;;;;;;;;;;21.45;30.74;97599.28;5057177;28;970;-78
2022/06/11 07:11:39;;;;;;;;;;;;;;;21.26;30.97;97599.03;5056682;28;945;-77
2022/06/11 07:14:05;;;;;;;;;;;;;;;21.17;31.25;97601.75;5055790;28;1851;-78
2022/06/11 07:16:34;;;;;;;;;;;;;;;21.75;31.25;97601.50;5055362;28;2092;-78
2022/06/11 07:19:01;;;;;;;;;;;;;;;21.96;31.55;97599.19;5055739;28;1847;-77
2022/06/11 07:21:28;;;;;;;;;;;;;;;22.16;31.09;97591.22;5039045;28;1896;-77
2022/06/11 07:23:55;;;;;;;;;;;;;;;21.85;31.32;97603.19;5056933;28;980;-77
2022/06/11 07:26:22;;;;;;;;;;;;;;;21.65;31.50;97596.19;5018256;28;1910;-78
2022/06/11 07:28:55;;;;;;;;;;;;;;;21.61;31.70;97602.00;4994869;28;1021;-78
2022/06/11 07:31:20;;;;;;;;;;;;;;;21.67;30.92;97600.19;4994691;28;946;-78
2022/06/11 07:33:48;;;;;;;;;;;;;;;21.49;31.07;97599.97;4971364;28;1084;-78
2022/06/11 07:36:14;;;;;;;;;;;;;;;21.59;30.97;97598.81;4956272;29;994;-78
2022/06/11 07:38:39;;;;;;;;;;;;;;;21.44;31.44;97597.69;4972161;28;1818;-78
2022/06/11 07:41:05;;;;;;;;;;;;;;;21.39;31.44;97606.75;4955938;28;1002;-75
2022/06/11 07:43:31;;;;;;;;;;;;;;;21.30;31.22;97594.09;4955146;28;2070;-75
2022/06/11 07:45:57;;;;;;;;;;;;;;;21.37;31.03;97593.06;4955939;29;956;-75
2022/06/11 07:48:23;;;;;;;;;;;;;;;21.55;30.79;97600.97;4955420;28;1915;-77
2022/06/11 07:50:49;;;;;;;;;;;;;;;21.42;31.01;97606.66;4955742;28;987;-77
2022/06/11 07:53:15;;;;;;;;;;;;;;;21.28;31.13;97613.50;4954315;28;2131;-77
2022/06/11 07:55:43;;;;;;;;;;;;;;;21.17;31.42;97601.75;4955765;29;1805;-78
2022/06/11 07:58:09;;;;;;;;;;;;;;;21.33;31.01;97600.88;4957408;28;1902;-77
2022/06/11 08:00:35;;;;;;;;;;;;;;;21.32;30.99;97602.13;4926438;28;1005;-78
2022/06/11 08:03:01;;;;;;;;;;;;;;;21.56;31.51;97596.91;4916847;29;963;-78
2022/06/11 08:05:26;;;;;;;;;;;;;;;21.62;32.08;97595.09;4949296;28;2299;-77
2022/06/11 08:07:52;;;;;;;;;;;;;;;21.91;31.83;97596.94;4974396;28;1943;-78
2022/06/11 08:10:17;;;;;;;;;;;;;;;21.95;31.88;97589.91;4974558;28;976;-76
2022/06/11 08:12:43;;;;;;;;;;;;;;;21.72;31.75;97591.09;4974804;28;957;-75
2022/06/11 08:15:08;;;;;;;;;;;;;;;21.54;31.92;97597.34;4974290;28;994;-75
2022/06/11 08:17:34;;;;;;;;;;;;;;;21.66;31.62;97592.94;4974650;28;980;-75
2022/06/11 08:19:59;;;;;;;;;;;;;;;21.63;31.04;97585.34;4982723;28;2125;-75
2022/06/11 08:22:25;;;;;;;;;;;;;;;21.71;31.09;97583.88;4993914;28;1018;-75
2022/06/11 08:24:51;;;;;;;;;;;;;;;21.44;31.35;97594.88;4993168;28;2475;-75
2022/06/11 08:27:16;;;;;;;;;;;;;;;21.33;31.53;97587.50;4993704;28;1902;-75
2022/06/11 08:29:42;;;;;;;;;;;;;;;21.43;31.31;97584.78;4993508;28;931;-75
2022/06/11 08:32:07;;;;;;;;;;;;;;;21.43;31.05;97581.97;4993783;28;1005;-75
2022/06/11 08:34:39;;;;;;;;;;;;;;;21.53;30.73;97580.81;4993708;28;1001;-75
2022/06/11 08:37:04;;;;;;;;;;;;;;;21.53;30.69;97575.16;4993348;28;937;-75
2022/06/11 08:39:30;;;;;;;;;;;;;;;21.33;31.13;97569.75;4994874;28;2160;-75
2022/06/11 08:41:56;;;;;;;;;;;;;;;21.56;30.78;97571.44;5011361;28;2168;-76
2022/06/11 08:44:21;;;;;;;;;;;;;;;21.33;31.14;97564.88;5013115;28;1016;-76
2022/06/11 08:46:48;;;;;;;;;;;;;;;21.46;30.87;97566.91;5013129;28;1935;-75
2022/06/11 08:49:20;;;;;;;;;;;;;;;21.50;30.87;97567.56;4997080;28;1029;-75
2022/06/11 08:51:53;;;;;;;;;;;;;;;21.43;31.18;97567.81;5013185;28;972;-75
2022/06/11 08:54:20;;;;;;;;;;;;;;;21.46;31.03;97566.91;4973218;28;1771;-75
2022/06/11 08:57:00;;;;;;;;;;;;;;;21.49;31.01;97561.13;4973044;28;2095;-75
2022/06/11 08:59:29;;;;;;;;;;;;;;;21.33;31.18;97564.88;4992119;28;2104;-75
2022/06/11 09:01:54;;;;;;;;;;;;;;;21.49;31.00;97566.00;4993520;28;1025;-75
2022/06/11 09:04:20;;;;;;;;;;;;;;;21.47;30.66;97563.63;4993852;28;1008;-75
2022/06/11 09:06:54;;;;;;;;;;;;;;;21.38;30.85;97566.34;4977046;28;1989;-75
2022/06/11 09:09:23;;;;;;;;;;;;;;;21.27;30.95;97563.81;4993426;28;975;-75
2022/06/11 09:12:03;;;;;;;;;;;;;;;21.41;30.81;97559.78;4954535;28;1166;-75
2022/06/11 09:14:48;;;;;;;;;;;;;;;21.35;30.91;97564.44;4915204;29;2117;-76
2022/06/11 09:17:32;;;;;;;;;;;;;;;21.49;31.28;97549.00;4878547;29;923;-75
2022/06/11 09:20:17;;;;;;;;;;;;;;;21.70;32.18;97556.78;4878823;29;1078;-75
2022/06/11 09:22:42;;;;;;;;;;;;;;;21.97;32.59;97561.16;4895029;29;1116;-75
2022/06/11 09:25:12;;;;;;;;;;;;;;;22.15;32.65;97555.66;4899939;29;948;-75
2022/06/11 09:27:46;;;;;;;;;;;;;;;22.14;32.57;97548.41;4884599;29;2180;-75
2022/06/11 09:30:18;;;;;;;;;;;;;;;22.07;32.75;97555.09;4893920;29;2099;-75
2022/06/11 09:32:46;;;;;;;;;;;;;;;21.92;32.81;97553.22;4882358;29;1114;-76
2022/06/11 09:35:14;;;;;;;;;;;;;;;21.74;32.50;97543.28;4882104;29;1002;-75
2022/06/11 09:37:44;;;;;;;;;;;;;;;21.56;32.68;97543.91;4882154;29;1062;-75
2022/06/11 09:40:31;;;;;;;;;;;;;;;21.54;32.29;97539.94;4863179;29;1033;-75
2022/06/11 09:42:59;;;;;;;;;;;;;;;21.64;31.94;97543.66;4862928;29;1031;-75
2022/06/11 09:45:24;;;;;;;;;;;;;;;21.71;31.52;97538.56;4955053;28;2043;-75
2022/06/11 09:47:50;;;;;;;;;;;;;;;21.72;31.37;97542.97;4996405;28;1906;-75
2022/06/11 09:50:30;;;;;;;;;;;;;;;21.47;32.02;97534.53;4996314;28;970;-75
2022/06/11 09:53:04;;;;;;;;;;;;;;;21.62;31.25;97535.63;4994853;28;2177;-75
2022/06/11 09:55:42;;;;;;;;;;;;;;;21.47;31.46;97535.31;4996070;28;1000;-75
2022/06/11 09:58:07;;;;;;;;;;;;;;;21.41;31.66;97531.47;4996164;28;1201;-76
2022/06/11 10:00:44;;;;;;;;;;;;;;;21.63;31.29;97531.53;4976617;28;1274;-75
2022/06/11 10:03:19;;;;;;;;;;;;;;;21.46;31.28;97521.63;4937921;29;1082;-75
2022/06/11 10:05:47;;;;;;;;;;;;;;;21.57;31.02;97517.19;4938441;29;1008;-75
2022/06/11 10:08:34;;;;;;;;;;;;;;;21.58;31.03;97517.97;4899350;29;2160;-75
2022/06/11 10:10:59;;;;;;;;;;;;;;;21.51;31.20;97502.03;4852310;29;1076;-75
2022/06/11 10:13:24;;;;;;;;;;;;;;;21.53;31.01;97507.22;4862784;29;990;-75
2022/06/11 10:15:50;;;;;;;;;;;;;;;21.36;31.41;97505.78;4862141;29;2068;-75
2022/06/11 10:18:24;;;;;;;;;;;;;;;21.45;31.50;97497.38;4862598;29;1132;-75
2022/06/11 10:20:50;;;;;;;;;;;;;;;21.29;31.65;97496.25;4842073;29;2118;-75
2022/06/11 10:23:22;;;;;;;;;;;;;;;21.42;31.55;97498.31;4807298;29;2748;-75
2022/06/11 10:25:47;;;;;;;;;;;;;;;21.31;31.68;97493.78;4807885;29;988;-75
2022/06/11 10:28:19;;;;;;;;;;;;;;;21.44;31.55;97492.97;4807501;29;1903;-75
2022/06/11 10:30:50;;;;;;;;;;;;;;;21.50;31.47;97485.47;4804796;29;938;-75
2022/06/11 10:33:23;;;;;;;;;;;;;;;21.45;31.44;97475.56;4794165;29;996;-75
2022/06/11 10:35:49;;;;;;;;;;;;;;;21.42;31.41;97475.66;4844948;29;2081;-75
2022/06/11 10:38:18;;;;;;;;;;;;;;;21.41;31.73;97471.25;4861237;29;1764;-75
2022/06/11 10:40:44;;;;;;;;;;;;;;;21.41;31.64;97469.22;4861589;29;2123;-75
2022/06/11 10:43:09;;;;;;;;;;;;;;;21.37;31.73;97473.41;4862174;29;1208;-75
2022/06/11 10:45:35;;;;;;;;;;;;;;;21.39;31.68;97462.41;4862283;29;1099;-75
2022/06/11 10:48:01;;;;;;;;;;;;;;;21.66;32.42;97462.69;4906013;29;1903;-75
2022/06/11 10:50:28;;;;;;;;;;;;;;;21.98;33.11;97469.25;4940256;29;1008;-75
2022/06/11 10:52:55;;;;;;;;;;;;;;;22.02;33.95;97467.03;4975054;28;939;-75
2022/06/11 10:55:47;;;;;;;;;;;;;;;22.07;34.11;97474.94;5022414;28;2096;-75
2022/06/11 10:58:12;;;;;;;;;;;;;;;21.94;33.87;97472.19;5011665;28;1116;-74
2022/06/11 11:00:58;;;;;;;;;;;;;;;21.71;33.81;97476.25;5014743;28;1086;-75
2022/06/11 11:03:32;;;;;;;;;;;;;;;21.67;33.77;97467.09;5014589;28;1081;-75
2022/06/11 11:06:01;;;;;;;;;;;;;;;21.68;33.41;97457.34;5017924;28;1032;-75
2022/06/11 11:08:27;;;;;;;;;;;;;;;21.64;33.11;97453.84;5036730;28;1922;-75
2022/06/11 11:10:52;;;;;;;;;;;;;;;21.63;33.11;97455.09;5033182;28;2154;-75
2022/06/11 11:13:37;;;;;;;;;;;;;;;21.51;33.56;97455.94;5033842;28;1001;-75
2022/06/11 11:16:11;;;;;;;;;;;;;;;21.56;33.17;97446.88;5034233;28;1011;-75
2022/06/11 11:18:41;;;;;;;;;;;;;;;21.56;33.31;97446.88;5033819;28;1015;-75
2022/06/11 11:21:13;;;;;;;;;;;;;;;21.60;33.02;97447.50;5014150;28;1075;-75
2022/06/11 11:23:39;;;;;;;;;;;;;;;21.49;33.14;97441.44;5014395;28;984;-75
2022/06/11 11:26:22;;;;;;;;;;;;;;;21.49;33.30;97441.44;5013056;28;2143;-75
2022/06/11 11:28:51;;;;;;;;;;;;;;;21.52;33.29;97454.69;5013789;28;1019;-74
2022/06/11 11:31:21;;;;;;;;;;;;;;;21.58;33.00;97450.81;4954714;29;1998;-75
2022/06/11 11:34:16;;;;;;;;;;;;;;;21.43;33.05;97448.94;4936146;29;965;-75
2022/06/11 11:36:42;;;;;;;;;;;;;;;21.57;33.20;97442.78;4898521;29;1050;-75
2022/06/11 11:39:13;;;;;;;;;;;;;;;21.68;32.82;97446.03;4861307;29;908;-75
2022/06/11 11:41:46;;;;;;;;;;;;;;;21.56;33.15;97441.22;4861136;29;1046;-75
2022/06/11 11:44:16;;;;;;;;;;;;;;;21.65;33.02;97440.47;4861090;29;1010;-75
2022/06/11 11:46:41;;;;;;;;;;;;;;;21.52;33.41;97449.81;4859520;29;2073;-75
2022/06/11 11:49:08;;;;;;;;;;;;;;;21.65;32.95;97446.94;4860905;29;991;-75
2022/06/11 11:51:34;;;;;;;;;;;;;;;21.53;33.26;97453.44;4860881;29;1050;-75
2022/06/11 11:54:06;;;;;;;;;;;;;;;21.43;33.30;97446.09;4845460;29;1277;-75
2022/06/11 11:56:40;;;;;;;;;;;;;;;21.46;32.90;97445.22;4861155;29;948;-74
2022/06/11 11:59:16;;;;;;;;;;;;;;;21.25;33.42;97450.31;4860766;29;1183;-75
2022/06/11 12:01:42;;;;;;;;;;;;;;;21.43;33.03;97444.06;4816143;29;2143;-75
2022/06/11 12:04:12;;;;;;;;;;;;;;;21.52;32.98;97443.38;4860540;29;1004;-75
2022/06/11 12:06:50;;;;;;;;;;;;;;;21.46;32.84;97443.16;4879422;29;1883;-75
2022/06/11 12:09:26;;;;;;;;;;;;;;;21.44;32.92;97444.84;4879212;29;972;-75
2022/06/11 12:11:57;;;;;;;;;;;;;;;21.44;33.18;97439.19;4863511;29;963;-75
2022/06/11 12:14:28;;;;;;;;;;;;;;;21.42;32.89;97431.16;4955419;29;973;-75
2022/06/11 12:16:54;;;;;;;;;;;;;;;21.46;32.83;97439.53;4978459;28;2046;-75
2022/06/11 12:19:19;;;;;;;;;;;;;;;21.34;32.92;97427.00;4993563;28;995;-75
2022/06/11 12:21:46;;;;;;;;;;;;;;;21.46;32.77;97439.53;4993752;28;1050;-75
2022/06/11 12:24:13;;;;;;;;;;;;;;;21.32;33.23;97427.47;4977253;28;1087;-75
2022/06/11 12:26:40;;;;;;;;;;;;;;;21.41;32.79;97429.59;4993817;28;1977;-75
2022/06/11 12:29:07;;;;;;;;;;;;;;;21.45;32.83;97421.78;4993465;28;1148;-75
2022/06/11 12:31:33;;;;;;;;;;;;;;;21.46;32.73;97425.41;4977458;28;2109;-75
2022/06/11 12:33:58;;;;;;;;;;;;;;;21.47;32.82;97426.97;5032813;28;990;-75
2022/06/11 12:36:29;;;;;;;;;;;;;;;21.58;32.57;97427.38;5017017;28;1012;-75
2022/06/11 12:38:56;;;;;;;;;;;;;;;21.43;32.93;97421.44;5035321;28;957;-75
2022/06/11 12:41:24;;;;;;;;;;;;;;;21.50;32.57;97420.38;5013219;28;969;-75
2022/06/11 12:44:16;;;;;;;;;;;;;;;21.70;32.47;97420.84;5013272;28;956;-75
2022/06/11 12:46:49;;;;;;;;;;;;;;;21.33;33.18;97400.72;4966474;28;2059;-75
2022/06/11 12:49:17;;;;;;;;;;;;;;;21.41;32.72;97406.94;4954080;29;2170;-75
2022/06/11 12:51:45;;;;;;;;;;;;;;;21.40;32.69;97404.56;4954975;29;1015;-75
2022/06/11 12:54:18;;;;;;;;;;;;;;;21.57;32.61;97405.97;4954640;29;964;-75
2022/06/11 12:56:47;;;;;;;;;;;;;;;21.62;32.88;97399.72;4954745;29;993;-75
2022/06/11 12:59:30;;;;;;;;;;;;;;;21.95;33.82;97393.66;4956009;28;1284;-75
2022/06/11 13:02:14;;;;;;;;;;;;;;;22.01;34.71;97391.81;4958526;28;2186;-76
2022/06/11 13:04:58;;;;;;;;;;;;;;;22.05;35.47;97386.81;4958192;29;1056;-75
2022/06/11 13:07:24;;;;;;;;;;;;;;;22.20;35.56;97393.53;4958404;29;1906;-75